sensor_id;sensor_type;location;lat;lon;timestamp;temperature;humidity
19968;DHT22;10145;49.152;9.282;2023-03-31T00:01:15;11.20;99.90
19968;DHT22;10145;49.152;9.282;2023-03-31T00:03:41;11.20;99.90
19968;DHT22;10145;49.152;9.282;2023-03-31T00:06:09;11.10;99.90
19968;DHT22;10145;49.152;9.282;2023-03-31T00:08:36;11.20;99.90
19968;DHT22;10145;49.152;9.282;2023-03-31T00:11:05;11.20;99.90
19968;DHT22;10145;49.152;9.282;2023-03-31T00:13:35;11.20;99.90
19968;DHT22;10145;49.152;9.282;2023-03-31T00:16:06;11.30;99.90
19968;DHT22;10145;49.152;9.282;2023-03-31T00:18:33;11.40;99.90
19968;DHT22;10145;49.152;9.282;2023-03-31T00:21:10;11.50;99.90
19968;DHT22;10145;49.152;9.282;2023-03-31T00:23:40;11.50;99.90
19968;DHT22;10145;49.152;9.282;2023-03-31T00:26:06;11.50;99.90
19968;DHT22;10145;49.152;9.282;2023-03-31T00:28:32;11.40;99.90
19968;DHT22;10145;49.152;9.282;2023-03-31T00:31:02;11.40;99.90
19968;DHT22;10145;49.152;9.282;2023-03-31T00:33:28;11.40;99.90
19968;DHT22;10145;49.152;9.282;2023-03-31T00:35:54;11.50;99.90
19968;DHT22;10145;49.152;9.282;2023-03-31T00:38:20;11.70;99.90
19968;DHT22;10145;49.152;9.282;2023-03-31T00:40:46;11.70;99.90
19968;DHT22;10145;49.152;9.282;2023-03-31T00:46:14;11.70;99.90
19968;DHT22;10145;49.152;9.282;2023-03-31T00:48:47;11.60;99.90
19968;DHT22;10145;49.152;9.282;2023-03-31T00:51:13;11.50;99.90
19968;DHT22;10145;49.152;9.282;2023-03-31T00:53:40;11.50;99.90
19968;DHT22;10145;49.152;9.282;2023-03-31T00:56:10;11.50;99.90
19968;DHT22;10145;49.152;9.282;2023-03-31T00:58:37;11.50;99.90
19968;DHT22;10145;49.152;9.282;2023-03-31T01:01:12;11.50;99.90
19968;DHT22;10145;49.152;9.282;2023-03-31T01:03:40;11.50;99.90
19968;DHT22;10145;49.152;9.282;2023-03-31T01:06:06;11.50;99.90
19968;DHT22;10145;49.152;9.282;2023-03-31T01:08:35;11.50;99.90
19968;DHT22;10145;49.152;9.282;2023-03-31T01:11:06;11.40;99.90
19968;DHT22;10145;49.152;9.282;2023-03-31T01:13:36;11.40;99.90
19968;DHT22;10145;49.152;9.282;2023-03-31T01:16:02;11.30;99.90
19968;DHT22;10145;49.152;9.282;2023-03-31T01:18:28;11.40;99.90
19968;DHT22;10145;49.152;9.282;2023-03-31T01:21:20;11.10;99.90
19968;DHT22;10145;49.152;9.282;2023-03-31T01:38:27;11.20;99.90
19968;DHT22;10145;49.152;9.282;2023-03-31T01:44:02;11.10;99.90
19968;DHT22;10145;49.152;9.282;2023-03-31T01:47:01;11.10;99.90
19968;DHT22;10145;49.152;9.282;2023-03-31T01:49:38;11.20;99.90
19968;DHT22;10145;49.152;9.282;2023-03-31T01:52:25;11.30;99.90
19968;DHT22;10145;49.152;9.282;2023-03-31T01:55:08;11.10;99.90
19968;DHT22;10145;49.152;9.282;2023-03-31T02:00:14;11.30;99.90
19968;DHT22;10145;49.152;9.282;2023-03-31T02:02:47;11.20;99.90
19968;DHT22;10145;49.152;9.282;2023-03-31T02:05:19;11.20;99.90
19968;DHT22;10145;49.152;9.282;2023-03-31T02:10:19;11.10;99.90
19968;DHT22;10145;49.152;9.282;2023-03-31T02:12:46;11.20;99.90
19968;DHT22;10145;49.152;9.282;2023-03-31T02:15:19;11.20;99.90
19968;DHT22;10145;49.152;9.282;2023-03-31T02:17:48;11.30;99.90
19968;DHT22;10145;49.152;9.282;2023-03-31T02:20:17;11.30;99.90
19968;DHT22;10145;49.152;9.282;2023-03-31T02:22:54;11.40;99.90
19968;DHT22;10145;49.152;9.282;2023-03-31T02:25:24;11.50;99.90
19968;DHT22;10145;49.152;9.282;2023-03-31T02:27:55;11.50;99.90
19968;DHT22;10145;49.152;9.282;2023-03-31T02:33:26;11.50;99.90
19968;DHT22;10145;49.152;9.282;2023-03-31T02:35:52;11.50;99.90
19968;DHT22;10145;49.152;9.282;2023-03-31T02:38:18;11.40;99.90
19968;DHT22;10145;49.152;9.282;2023-03-31T02:40:44;11.30;99.90
19968;DHT22;10145;49.152;9.282;2023-03-31T02:43:10;11.30;99.90
19968;DHT22;10145;49.152;9.282;2023-03-31T02:45:44;11.30;99.90
19968;DHT22;10145;49.152;9.282;2023-03-31T02:48:32;11.30;99.90
19968;DHT22;10145;49.152;9.282;2023-03-31T02:56:54;11.20;99.90
19968;DHT22;10145;49.152;9.282;2023-03-31T02:59:44;11.00;99.90
19968;DHT22;10145;49.152;9.282;2023-03-31T03:04:59;10.90;99.90
19968;DHT22;10145;49.152;9.282;2023-03-31T03:07:33;10.80;99.90
19968;DHT22;10145;49.152;9.282;2023-03-31T03:12:48;10.90;99.90
19968;DHT22;10145;49.152;9.282;2023-03-31T03:15:36;10.80;99.90
19968;DHT22;10145;49.152;9.282;2023-03-31T03:18:04;10.80;99.90
19968;DHT22;10145;49.152;9.282;2023-03-31T03:20:31;10.80;99.90
19968;DHT22;10145;49.152;9.282;2023-03-31T03:22:58;10.80;99.90
19968;DHT22;10145;49.152;9.282;2023-03-31T03:25:24;10.80;99.90
19968;DHT22;10145;49.152;9.282;2023-03-31T03:27:50;10.80;99.90
19968;DHT22;10145;49.152;9.282;2023-03-31T03:30:17;10.80;99.90
19968;DHT22;10145;49.152;9.282;2023-03-31T03:32:43;10.80;99.90
19968;DHT22;10145;49.152;9.282;2023-03-31T03:35:09;10.80;99.90
19968;DHT22;10145;49.152;9.282;2023-03-31T03:37:35;10.80;99.90
19968;DHT22;10145;49.152;9.282;2023-03-31T03:40:01;10.80;99.90
19968;DHT22;10145;49.152;9.282;2023-03-31T03:42:28;10.80;99.90
19968;DHT22;10145;49.152;9.282;2023-03-31T03:44:53;10.70;99.90
19968;DHT22;10145;49.152;9.282;2023-03-31T03:47:19;10.70;99.90
19968;DHT22;10145;49.152;9.282;2023-03-31T03:49:44;10.70;99.90
19968;DHT22;10145;49.152;9.282;2023-03-31T03:52:10;10.70;99.90
19968;DHT22;10145;49.152;9.282;2023-03-31T03:54:35;10.70;99.90
19968;DHT22;10145;49.152;9.282;2023-03-31T03:57:01;10.70;99.90
19968;DHT22;10145;49.152;9.282;2023-03-31T03:59:26;10.90;99.90
19968;DHT22;10145;49.152;9.282;2023-03-31T04:01:52;10.90;99.90
19968;DHT22;10145;49.152;9.282;2023-03-31T04:04:18;11.00;99.90
19968;DHT22;10145;49.152;9.282;2023-03-31T04:06:43;11.00;99.90
19968;DHT22;10145;49.152;9.282;2023-03-31T04:09:09;11.00;99.90
19968;DHT22;10145;49.152;9.282;2023-03-31T04:11:35;11.00;99.90
19968;DHT22;10145;49.152;9.282;2023-03-31T04:14:00;11.00;99.90
19968;DHT22;10145;49.152;9.282;2023-03-31T04:16:26;11.00;99.90
19968;DHT22;10145;49.152;9.282;2023-03-31T04:18:52;11.00;99.90
19968;DHT22;10145;49.152;9.282;2023-03-31T04:21:22;11.00;99.90
19968;DHT22;10145;49.152;9.282;2023-03-31T04:23:50;11.00;99.90
19968;DHT22;10145;49.152;9.282;2023-03-31T04:26:23;11.00;99.90
19968;DHT22;10145;49.152;9.282;2023-03-31T04:28:58;11.00;99.90
19968;DHT22;10145;49.152;9.282;2023-03-31T04:31:27;11.00;99.90
19968;DHT22;10145;49.152;9.282;2023-03-31T04:33:55;10.90;99.90
19968;DHT22;10145;49.152;9.282;2023-03-31T04:36:25;10.90;99.90
19968;DHT22;10145;49.152;9.282;2023-03-31T04:38:50;10.90;99.90
19968;DHT22;10145;49.152;9.282;2023-03-31T04:41:22;10.90;99.90
19968;DHT22;10145;49.152;9.282;2023-03-31T04:43:48;11.00;99.90
19968;DHT22;10145;49.152;9.282;2023-03-31T04:46:14;11.10;99.90
19968;DHT22;10145;49.152;9.282;2023-03-31T04:48:40;11.20;99.90
19968;DHT22;10145;49.152;9.282;2023-03-31T04:51:06;11.10;99.90
19968;DHT22;10145;49.152;9.282;2023-03-31T04:53:31;11.00;99.90
19968;DHT22;10145;49.152;9.282;2023-03-31T04:55:57;11.00;99.90
19968;DHT22;10145;49.152;9.282;2023-03-31T04:58:23;11.00;99.90
19968;DHT22;10145;49.152;9.282;2023-03-31T05:00:48;11.00;99.90
19968;DHT22;10145;49.152;9.282;2023-03-31T05:03:14;11.00;99.90
19968;DHT22;10145;49.152;9.282;2023-03-31T05:05:39;11.00;99.90
19968;DHT22;10145;49.152;9.282;2023-03-31T05:08:06;11.00;99.90
19968;DHT22;10145;49.152;9.282;2023-03-31T05:10:31;11.00;99.90
19968;DHT22;10145;49.152;9.282;2023-03-31T05:12:57;10.90;99.90
19968;DHT22;10145;49.152;9.282;2023-03-31T05:15:23;11.00;99.90
19968;DHT22;10145;49.152;9.282;2023-03-31T05:17:51;11.00;99.90
19968;DHT22;10145;49.152;9.282;2023-03-31T05:20:18;11.00;99.90
19968;DHT22;10145;49.152;9.282;2023-03-31T05:22:44;11.00;99.90
19968;DHT22;10145;49.152;9.282;2023-03-31T05:25:11;10.90;99.90
19968;DHT22;10145;49.152;9.282;2023-03-31T05:27:43;10.90;99.90
19968;DHT22;10145;49.152;9.282;2023-03-31T05:30:09;10.80;99.90
19968;DHT22;10145;49.152;9.282;2023-03-31T05:32:35;10.80;99.90
19968;DHT22;10145;49.152;9.282;2023-03-31T05:35:01;10.80;99.90
19968;DHT22;10145;49.152;9.282;2023-03-31T05:37:26;10.80;99.90
19968;DHT22;10145;49.152;9.282;2023-03-31T05:39:52;10.70;99.90
19968;DHT22;10145;49.152;9.282;2023-03-31T05:42:18;10.70;99.90
19968;DHT22;10145;49.152;9.282;2023-03-31T05:44:44;10.60;99.90
19968;DHT22;10145;49.152;9.282;2023-03-31T05:47:10;10.40;99.90
19968;DHT22;10145;49.152;9.282;2023-03-31T05:49:36;10.10;99.90
19968;DHT22;10145;49.152;9.282;2023-03-31T05:52:03;9.90;99.90
19968;DHT22;10145;49.152;9.282;2023-03-31T05:54:29;9.80;99.90
19968;DHT22;10145;49.152;9.282;2023-03-31T05:56:54;9.70;99.90
19968;DHT22;10145;49.152;9.282;2023-03-31T05:59:20;9.60;99.90
19968;DHT22;10145;49.152;9.282;2023-03-31T06:01:46;9.60;99.90
19968;DHT22;10145;49.152;9.282;2023-03-31T06:04:12;9.50;99.90
19968;DHT22;10145;49.152;9.282;2023-03-31T06:06:37;9.50;99.90
19968;DHT22;10145;49.152;9.282;2023-03-31T06:09:03;9.50;99.90
19968;DHT22;10145;49.152;9.282;2023-03-31T06:11:29;9.50;99.90
19968;DHT22;10145;49.152;9.282;2023-03-31T06:13:55;9.50;99.90
19968;DHT22;10145;49.152;9.282;2023-03-31T06:16:21;9.50;99.90
19968;DHT22;10145;49.152;9.282;2023-03-31T06:18:46;9.50;99.90
19968;DHT22;10145;49.152;9.282;2023-03-31T06:21:14;9.40;99.90
19968;DHT22;10145;49.152;9.282;2023-03-31T06:23:41;9.40;99.90
19968;DHT22;10145;49.152;9.282;2023-03-31T06:26:12;9.40;99.90
19968;DHT22;10145;49.152;9.282;2023-03-31T06:28:37;9.50;99.90
19968;DHT22;10145;49.152;9.282;2023-03-31T06:31:08;9.40;99.90
19968;DHT22;10145;49.152;9.282;2023-03-31T06:33:36;9.40;99.90
19968;DHT22;10145;49.152;9.282;2023-03-31T06:36:01;9.40;99.90
19968;DHT22;10145;49.152;9.282;2023-03-31T06:38:30;9.50;99.90
19968;DHT22;10145;49.152;9.282;2023-03-31T06:40:55;9.50;99.90
19968;DHT22;10145;49.152;9.282;2023-03-31T06:43:21;9.40;99.90
19968;DHT22;10145;49.152;9.282;2023-03-31T06:45:47;9.40;99.90
19968;DHT22;10145;49.152;9.282;2023-03-31T06:48:13;9.50;99.90
19968;DHT22;10145;49.152;9.282;2023-03-31T06:50:40;9.50;99.90
19968;DHT22;10145;49.152;9.282;2023-03-31T06:53:07;9.50;99.90
19968;DHT22;10145;49.152;9.282;2023-03-31T06:55:32;9.50;99.90
19968;DHT22;10145;49.152;9.282;2023-03-31T06:57:58;9.50;99.90
19968;DHT22;10145;49.152;9.282;2023-03-31T07:00:24;9.60;99.90
19968;DHT22;10145;49.152;9.282;2023-03-31T07:02:51;9.60;99.90
19968;DHT22;10145;49.152;9.282;2023-03-31T07:05:17;9.60;99.90
19968;DHT22;10145;49.152;9.282;2023-03-31T07:07:44;9.60;99.90
19968;DHT22;10145;49.152;9.282;2023-03-31T07:10:10;9.70;99.90
19968;DHT22;10145;49.152;9.282;2023-03-31T07:12:36;9.60;99.90
19968;DHT22;10145;49.152;9.282;2023-03-31T07:15:01;9.70;99.90
19968;DHT22;10145;49.152;9.282;2023-03-31T07:17:27;9.70;99.90
19968;DHT22;10145;49.152;9.282;2023-03-31T07:19:53;9.70;99.90
19968;DHT22;10145;49.152;9.282;2023-03-31T07:22:18;9.70;99.90
19968;DHT22;10145;49.152;9.282;2023-03-31T07:24:44;9.70;99.90
19968;DHT22;10145;49.152;9.282;2023-03-31T07:27:09;9.70;99.90
19968;DHT22;10145;49.152;9.282;2023-03-31T07:29:35;9.70;99.90
19968;DHT22;10145;49.152;9.282;2023-03-31T07:32:00;9.80;99.90
19968;DHT22;10145;49.152;9.282;2023-03-31T07:34:26;9.90;99.90
19968;DHT22;10145;49.152;9.282;2023-03-31T07:36:54;10.00;99.90
19968;DHT22;10145;49.152;9.282;2023-03-31T07:39:20;10.20;99.90
19968;DHT22;10145;49.152;9.282;2023-03-31T07:41:46;10.30;99.90
19968;DHT22;10145;49.152;9.282;2023-03-31T07:44:11;10.40;99.90
19968;DHT22;10145;49.152;9.282;2023-03-31T07:46:38;10.20;99.90
19968;DHT22;10145;49.152;9.282;2023-03-31T07:49:04;10.30;99.90
19968;DHT22;10145;49.152;9.282;2023-03-31T07:51:29;10.40;99.90
19968;DHT22;10145;49.152;9.282;2023-03-31T07:53:55;10.50;99.90
19968;DHT22;10145;49.152;9.282;2023-03-31T07:56:23;10.50;99.90
19968;DHT22;10145;49.152;9.282;2023-03-31T07:58:49;10.70;99.90
19968;DHT22;10145;49.152;9.282;2023-03-31T08:01:19;11.00;99.90
19968;DHT22;10145;49.152;9.282;2023-03-31T08:03:46;11.10;99.90
19968;DHT22;10145;49.152;9.282;2023-03-31T08:06:18;11.10;99.90
19968;DHT22;10145;49.152;9.282;2023-03-31T08:08:44;11.30;99.90
19968;DHT22;10145;49.152;9.282;2023-03-31T08:11:10;11.10;99.90
19968;DHT22;10145;49.152;9.282;2023-03-31T08:13:35;11.10;99.90
19968;DHT22;10145;49.152;9.282;2023-03-31T08:16:01;11.20;99.90
19968;DHT22;10145;49.152;9.282;2023-03-31T08:18:27;11.30;99.90
19968;DHT22;10145;49.152;9.282;2023-03-31T08:20:52;11.50;99.90
19968;DHT22;10145;49.152;9.282;2023-03-31T08:23:18;11.60;99.90
19968;DHT22;10145;49.152;9.282;2023-03-31T08:25:43;11.50;99.90
19968;DHT22;10145;49.152;9.282;2023-03-31T08:28:09;11.60;99.90
19968;DHT22;10145;49.152;9.282;2023-03-31T08:30:39;11.70;99.90
19968;DHT22;10145;49.152;9.282;2023-03-31T08:33:05;11.70;99.90
19968;DHT22;10145;49.152;9.282;2023-03-31T08:35:33;11.60;99.90
19968;DHT22;10145;49.152;9.282;2023-03-31T08:37:58;11.70;99.90
19968;DHT22;10145;49.152;9.282;2023-03-31T08:40:27;11.80;99.90
19968;DHT22;10145;49.152;9.282;2023-03-31T08:42:57;12.00;99.90
19968;DHT22;10145;49.152;9.282;2023-03-31T08:45:33;12.20;99.90
19968;DHT22;10145;49.152;9.282;2023-03-31T08:48:02;12.20;99.90
19968;DHT22;10145;49.152;9.282;2023-03-31T08:50:34;12.40;99.90
19968;DHT22;10145;49.152;9.282;2023-03-31T08:53:24;12.30;99.90
19968;DHT22;10145;49.152;9.282;2023-03-31T08:55:55;12.60;99.90
19968;DHT22;10145;49.152;9.282;2023-03-31T08:58:35;12.80;99.90
19968;DHT22;10145;49.152;9.282;2023-03-31T09:01:11;13.00;99.90
19968;DHT22;10145;49.152;9.282;2023-03-31T09:07:14;13.20;99.90
19968;DHT22;10145;49.152;9.282;2023-03-31T09:13:01;13.40;99.90
19968;DHT22;10145;49.152;9.282;2023-03-31T09:15:57;13.60;99.90
19968;DHT22;10145;49.152;9.282;2023-03-31T09:18:34;13.90;99.90
19968;DHT22;10145;49.152;9.282;2023-03-31T09:21:15;13.90;99.90
19968;DHT22;10145;49.152;9.282;2023-03-31T09:23:55;14.00;99.90
19968;DHT22;10145;49.152;9.282;2023-03-31T09:26:56;14.20;99.90
19968;DHT22;10145;49.152;9.282;2023-03-31T09:32:16;14.30;99.90
19968;DHT22;10145;49.152;9.282;2023-03-31T09:34:44;14.20;99.90
19968;DHT22;10145;49.152;9.282;2023-03-31T09:37:11;14.30;99.90
19968;DHT22;10145;49.152;9.282;2023-03-31T09:39:37;14.20;99.90
19968;DHT22;10145;49.152;9.282;2023-03-31T09:42:03;14.50;99.90
19968;DHT22;10145;49.152;9.282;2023-03-31T09:44:36;14.80;99.90
19968;DHT22;10145;49.152;9.282;2023-03-31T09:47:04;14.80;99.90
19968;DHT22;10145;49.152;9.282;2023-03-31T09:49:33;14.70;99.90
19968;DHT22;10145;49.152;9.282;2023-03-31T09:54:48;14.30;99.90
19968;DHT22;10145;49.152;9.282;2023-03-31T09:57:34;14.40;99.90
19968;DHT22;10145;49.152;9.282;2023-03-31T10:02:48;14.80;99.90
19968;DHT22;10145;49.152;9.282;2023-03-31T10:10:37;14.80;99.90
19968;DHT22;10145;49.152;9.282;2023-03-31T10:13:08;14.80;99.90
19968;DHT22;10145;49.152;9.282;2023-03-31T10:15:38;14.90;99.90
19968;DHT22;10145;49.152;9.282;2023-03-31T10:18:03;14.80;99.90
19968;DHT22;10145;49.152;9.282;2023-03-31T10:20:33;14.70;99.90
19968;DHT22;10145;49.152;9.282;2023-03-31T10:23:22;14.60;99.90
19968;DHT22;10145;49.152;9.282;2023-03-31T10:25:49;15.00;99.90
19968;DHT22;10145;49.152;9.282;2023-03-31T10:28:17;15.30;99.30
19968;DHT22;10145;49.152;9.282;2023-03-31T10:30:49;15.60;99.30
19968;DHT22;10145;49.152;9.282;2023-03-31T10:33:18;15.50;98.80
19968;DHT22;10145;49.152;9.282;2023-03-31T10:35:47;16.00;98.70
19968;DHT22;10145;49.152;9.282;2023-03-31T10:38:34;16.30;98.20
19968;DHT22;10145;49.152;9.282;2023-03-31T10:41:01;16.40;98.10
19968;DHT22;10145;49.152;9.282;2023-03-31T10:43:42;16.70;97.30
19968;DHT22;10145;49.152;9.282;2023-03-31T10:46:12;16.60;96.80
19968;DHT22;10145;49.152;9.282;2023-03-31T10:48:41;16.20;98.40
19968;DHT22;10145;49.152;9.282;2023-03-31T10:51:24;16.40;98.20
19968;DHT22;10145;49.152;9.282;2023-03-31T10:53:53;16.50;97.70
19968;DHT22;10145;49.152;9.282;2023-03-31T10:56:41;17.10;99.40
19968;DHT22;10145;49.152;9.282;2023-03-31T11:05:13;17.50;95.90
19968;DHT22;10145;49.152;9.282;2023-03-31T11:07:52;17.30;95.60
19968;DHT22;10145;49.152;9.282;2023-03-31T11:10:59;17.20;95.00
19968;DHT22;10145;49.152;9.282;2023-03-31T11:13:49;17.20;94.60
19968;DHT22;10145;49.152;9.282;2023-03-31T11:19:09;17.30;94.60
19968;DHT22;10145;49.152;9.282;2023-03-31T11:32:26;15.20;99.90
19968;DHT22;10145;49.152;9.282;2023-03-31T11:38:31;10.90;99.90
19968;DHT22;10145;49.152;9.282;2023-03-31T11:43:55;10.10;99.90
19968;DHT22;10145;49.152;9.282;2023-03-31T11:46:30;10.50;99.90
19968;DHT22;10145;49.152;9.282;2023-03-31T11:49:04;10.60;99.90
19968;DHT22;10145;49.152;9.282;2023-03-31T11:51:49;10.90;99.90
19968;DHT22;10145;49.152;9.282;2023-03-31T11:54:36;11.20;99.90
19968;DHT22;10145;49.152;9.282;2023-03-31T11:57:13;11.50;99.90
19968;DHT22;10145;49.152;9.282;2023-03-31T11:59:41;11.50;99.90
19968;DHT22;10145;49.152;9.282;2023-03-31T12:02:18;11.50;99.90
19968;DHT22;10145;49.152;9.282;2023-03-31T12:04:49;11.50;99.90
19968;DHT22;10145;49.152;9.282;2023-03-31T12:07:28;11.70;99.90
19968;DHT22;10145;49.152;9.282;2023-03-31T12:10:16;11.70;99.90
19968;DHT22;10145;49.152;9.282;2023-03-31T12:12:56;11.80;99.90
19968;DHT22;10145;49.152;9.282;2023-03-31T12:15:29;11.80;99.90
19968;DHT22;10145;49.152;9.282;2023-03-31T12:18:13;12.10;99.90
19968;DHT22;10145;49.152;9.282;2023-03-31T12:20:46;12.50;99.90
19968;DHT22;10145;49.152;9.282;2023-03-31T12:23:18;12.60;99.90
19968;DHT22;10145;49.152;9.282;2023-03-31T12:25:52;12.70;99.90
19968;DHT22;10145;49.152;9.282;2023-03-31T12:28:21;13.00;99.90
19968;DHT22;10145;49.152;9.282;2023-03-31T12:30:48;13.10;99.90
19968;DHT22;10145;49.152;9.282;2023-03-31T12:33:31;13.20;99.90
19968;DHT22;10145;49.152;9.282;2023-03-31T12:49:25;13.90;99.90
19968;DHT22;10145;49.152;9.282;2023-03-31T12:51:57;14.10;99.90
19968;DHT22;10145;49.152;9.282;2023-03-31T12:59:34;14.00;99.90
19968;DHT22;10145;49.152;9.282;2023-03-31T13:02:22;14.00;99.90
19968;DHT22;10145;49.152;9.282;2023-03-31T13:04:48;14.10;99.90
19968;DHT22;10145;49.152;9.282;2023-03-31T13:09:57;14.60;99.90
19968;DHT22;10145;49.152;9.282;2023-03-31T13:12:25;14.50;99.90
19968;DHT22;10145;49.152;9.282;2023-03-31T13:14:54;14.10;99.90
19968;DHT22;10145;49.152;9.282;2023-03-31T13:17:29;14.00;99.90
19968;DHT22;10145;49.152;9.282;2023-03-31T13:20:57;14.00;99.90
19968;DHT22;10145;49.152;9.282;2023-03-31T13:25:42;13.60;99.90
19968;DHT22;10145;49.152;9.282;2023-03-31T13:28:16;13.60;99.90
19968;DHT22;10145;49.152;9.282;2023-03-31T13:30:45;13.80;99.90
19968;DHT22;10145;49.152;9.282;2023-03-31T13:33:17;13.90;99.90
19968;DHT22;10145;49.152;9.282;2023-03-31T13:35:47;14.10;99.90
19968;DHT22;10145;49.152;9.282;2023-03-31T13:38:42;14.40;99.90
19968;DHT22;10145;49.152;9.282;2023-03-31T13:49:49;16.00;98.60
19968;DHT22;10145;49.152;9.282;2023-03-31T13:52:37;16.40;97.60
19968;DHT22;10145;49.152;9.282;2023-03-31T13:58:36;16.20;96.10
19968;DHT22;10145;49.152;9.282;2023-03-31T14:01:20;16.30;96.30
19968;DHT22;10145;49.152;9.282;2023-03-31T14:04:46;16.40;95.80
19968;DHT22;10145;49.152;9.282;2023-03-31T14:07:15;16.30;94.90
19968;DHT22;10145;49.152;9.282;2023-03-31T14:09:44;16.00;95.70
19968;DHT22;10145;49.152;9.282;2023-03-31T14:12:34;15.80;95.50
19968;DHT22;10145;49.152;9.282;2023-03-31T14:15:01;15.70;95.40
19968;DHT22;10145;49.152;9.282;2023-03-31T14:17:36;15.70;96.90
19968;DHT22;10145;49.152;9.282;2023-03-31T14:20:29;15.70;96.80
19968;DHT22;10145;49.152;9.282;2023-03-31T14:26:19;15.30;96.80
19968;DHT22;10145;49.152;9.282;2023-03-31T14:28:49;15.50;96.90
19968;DHT22;10145;49.152;9.282;2023-03-31T14:31:42;15.30;95.80
19968;DHT22;10145;49.152;9.282;2023-03-31T14:37:05;15.00;96.50
19968;DHT22;10145;49.152;9.282;2023-03-31T14:39:56;15.60;95.00
19968;DHT22;10145;49.152;9.282;2023-03-31T14:42:24;15.80;95.90
19968;DHT22;10145;49.152;9.282;2023-03-31T14:45:01;16.30;94.20
19968;DHT22;10145;49.152;9.282;2023-03-31T14:47:27;16.60;93.70
19968;DHT22;10145;49.152;9.282;2023-03-31T14:50:12;16.50;94.10
19968;DHT22;10145;49.152;9.282;2023-03-31T14:52:39;16.30;93.70
19968;DHT22;10145;49.152;9.282;2023-03-31T14:55:14;15.90;94.60
19968;DHT22;10145;49.152;9.282;2023-03-31T14:57:40;15.70;95.10
19968;DHT22;10145;49.152;9.282;2023-03-31T15:00:07;15.40;94.40
19968;DHT22;10145;49.152;9.282;2023-03-31T15:02:40;15.00;95.40
19968;DHT22;10145;49.152;9.282;2023-03-31T15:07:56;14.40;96.40
19968;DHT22;10145;49.152;9.282;2023-03-31T15:10:22;14.30;97.10
19968;DHT22;10145;49.152;9.282;2023-03-31T15:12:49;14.20;96.40
19968;DHT22;10145;49.152;9.282;2023-03-31T15:15:17;14.30;97.10
19968;DHT22;10145;49.152;9.282;2023-03-31T15:17:45;14.10;96.10
19968;DHT22;10145;49.152;9.282;2023-03-31T15:22:48;14.00;97.10
19968;DHT22;10145;49.152;9.282;2023-03-31T15:25:15;13.90;96.90
19968;DHT22;10145;49.152;9.282;2023-03-31T15:27:56;14.00;96.30
19968;DHT22;10145;49.152;9.282;2023-03-31T15:30:24;14.00;95.80
19968;DHT22;10145;49.152;9.282;2023-03-31T15:32:51;14.10;95.70
19968;DHT22;10145;49.152;9.282;2023-03-31T15:35:22;14.00;96.00
19968;DHT22;10145;49.152;9.282;2023-03-31T15:37:50;14.10;96.60
19968;DHT22;10145;49.152;9.282;2023-03-31T15:40:22;14.30;96.80
19968;DHT22;10145;49.152;9.282;2023-03-31T15:42:53;14.30;96.60
19968;DHT22;10145;49.152;9.282;2023-03-31T15:47:49;14.30;96.50
19968;DHT22;10145;49.152;9.282;2023-03-31T15:50:16;14.20;96.40
19968;DHT22;10145;49.152;9.282;2023-03-31T15:52:54;14.20;96.90
19968;DHT22;10145;49.152;9.282;2023-03-31T15:57:48;14.10;96.50
19968;DHT22;10145;49.152;9.282;2023-03-31T16:03:00;14.00;96.60
19968;DHT22;10145;49.152;9.282;2023-03-31T16:08:21;13.80;97.20
19968;DHT22;10145;49.152;9.282;2023-03-31T16:10:48;13.60;97.40
19968;DHT22;10145;49.152;9.282;2023-03-31T16:13:20;13.50;99.10
19968;DHT22;10145;49.152;9.282;2023-03-31T16:15:48;13.20;99.90
19968;DHT22;10145;49.152;9.282;2023-03-31T16:20:55;12.50;99.90
19968;DHT22;10145;49.152;9.282;2023-03-31T16:23:26;12.30;99.90
19968;DHT22;10145;49.152;9.282;2023-03-31T16:25:53;12.20;99.90
19968;DHT22;10145;49.152;9.282;2023-03-31T16:28:22;12.10;99.90
19968;DHT22;10145;49.152;9.282;2023-03-31T16:30:49;12.20;99.90
19968;DHT22;10145;49.152;9.282;2023-03-31T16:33:17;12.00;99.90
19968;DHT22;10145;49.152;9.282;2023-03-31T16:35:46;12.00;99.90
19968;DHT22;10145;49.152;9.282;2023-03-31T16:38:13;12.00;99.90
19968;DHT22;10145;49.152;9.282;2023-03-31T16:40:43;12.00;99.90
19968;DHT22;10145;49.152;9.282;2023-03-31T16:43:12;12.00;99.90
19968;DHT22;10145;49.152;9.282;2023-03-31T16:45:39;12.00;99.90
19968;DHT22;10145;49.152;9.282;2023-03-31T16:48:04;12.00;99.90
19968;DHT22;10145;49.152;9.282;2023-03-31T16:50:30;12.10;99.90
19968;DHT22;10145;49.152;9.282;2023-03-31T16:52:56;12.10;99.90
19968;DHT22;10145;49.152;9.282;2023-03-31T16:55:23;12.20;99.90
19968;DHT22;10145;49.152;9.282;2023-03-31T16:57:49;12.20;99.90
19968;DHT22;10145;49.152;9.282;2023-03-31T17:00:14;12.20;99.90
19968;DHT22;10145;49.152;9.282;2023-03-31T17:02:40;12.20;99.90
19968;DHT22;10145;49.152;9.282;2023-03-31T17:05:06;12.30;99.90
19968;DHT22;10145;49.152;9.282;2023-03-31T17:07:32;12.20;99.90
19968;DHT22;10145;49.152;9.282;2023-03-31T17:09:58;12.10;99.90
19968;DHT22;10145;49.152;9.282;2023-03-31T17:12:24;11.70;99.90
19968;DHT22;10145;49.152;9.282;2023-03-31T17:14:50;11.10;99.90
19968;DHT22;10145;49.152;9.282;2023-03-31T17:17:16;10.60;99.90
19968;DHT22;10145;49.152;9.282;2023-03-31T17:19:41;10.10;99.90
19968;DHT22;10145;49.152;9.282;2023-03-31T17:22:07;9.80;99.90
19968;DHT22;10145;49.152;9.282;2023-03-31T17:24:32;9.60;99.90
19968;DHT22;10145;49.152;9.282;2023-03-31T17:26:58;9.40;99.90
19968;DHT22;10145;49.152;9.282;2023-03-31T17:29:25;9.30;99.90
19968;DHT22;10145;49.152;9.282;2023-03-31T17:31:50;9.20;99.90
19968;DHT22;10145;49.152;9.282;2023-03-31T17:34:16;9.10;99.90
19968;DHT22;10145;49.152;9.282;2023-03-31T17:36:42;9.10;99.90
19968;DHT22;10145;49.152;9.282;2023-03-31T17:39:09;9.00;99.90
19968;DHT22;10145;49.152;9.282;2023-03-31T17:41:35;9.00;99.90
19968;DHT22;10145;49.152;9.282;2023-03-31T17:44:01;9.00;99.90
19968;DHT22;10145;49.152;9.282;2023-03-31T17:46:27;9.00;99.90
19968;DHT22;10145;49.152;9.282;2023-03-31T17:48:52;8.90;99.90
19968;DHT22;10145;49.152;9.282;2023-03-31T17:51:20;8.90;99.90
19968;DHT22;10145;49.152;9.282;2023-03-31T17:53:47;8.80;99.90
19968;DHT22;10145;49.152;9.282;2023-03-31T17:56:14;8.80;99.90
19968;DHT22;10145;49.152;9.282;2023-03-31T17:58:40;8.90;99.90
19968;DHT22;10145;49.152;9.282;2023-03-31T18:01:07;8.90;99.90
19968;DHT22;10145;49.152;9.282;2023-03-31T18:03:34;8.80;99.90
19968;DHT22;10145;49.152;9.282;2023-03-31T18:06:04;8.70;99.90
19968;DHT22;10145;49.152;9.282;2023-03-31T18:08:31;8.70;99.90
19968;DHT22;10145;49.152;9.282;2023-03-31T18:10:57;8.60;99.90
19968;DHT22;10145;49.152;9.282;2023-03-31T18:13:23;8.50;99.90
19968;DHT22;10145;49.152;9.282;2023-03-31T18:15:50;8.50;99.90
19968;DHT22;10145;49.152;9.282;2023-03-31T18:18:18;8.40;99.90